Time;durP1;ratioP1;P1;durP2;ratioP2;P2;SDS_P1;SDS_P2;PMS_P1;PMS_P2;Temp;Humidity;BMP_temperature;BMP_pressure;BME280_temperature;BME280_humidity;BME280_pressure;Samples;Min_cycle;Max_cycle;Signal;HPM_P1;HPM_P2
2023/12/07 00:00:52;;;;;;;5.97;4.70;;;4.40;79.20;;;;;;5023394;28;20752;-76
2023/12/07 00:03:18;;;;;;;5.70;4.47;;;4.40;79.20;;;;;;4994500;28;20030;-76
2023/12/07 00:05:44;;;;;;;6.50;5.03;;;4.40;79.20;;;;;;5007868;28;20164;-77
2023/12/07 00:08:11;;;;;;;6.75;5.10;;;4.40;79.20;;;;;;5013976;28;20447;-76
2023/12/07 00:10:36;;;;;;;6.15;4.80;;;4.30;79.10;;;;;;4997061;28;20032;-77
2023/12/07 00:13:03;;;;;;;6.65;5.35;;;4.30;79.10;;;;;;5030999;28;20445;-76
2023/12/07 00:15:28;;;;;;;6.38;4.90;;;4.30;79.10;;;;;;5028669;28;20076;-77
2023/12/07 00:17:54;;;;;;;6.43;5.10;;;4.30;79.10;;;;;;5027199;28;20911;-76
2023/12/07 00:20:20;;;;;;;5.30;4.60;;;4.30;79.10;;;;;;5041991;28;20473;-76
2023/12/07 00:22:46;;;;;;;5.95;4.55;;;4.30;79.10;;;;;;4996419;28;20041;-76
2023/12/07 00:25:11;;;;;;;5.85;4.80;;;4.20;79.10;;;;;;5007152;28;20033;-76
2023/12/07 00:27:37;;;;;;;6.32;5.20;;;4.20;79.10;;;;;;5008914;28;20068;-76
2023/12/07 00:30:03;;;;;;;6.03;4.55;;;4.20;79.10;;;;;;5005447;28;20095;-76
2023/12/07 00:32:29;;;;;;;7.30;5.28;;;4.20;79.10;;;;;;5016998;28;20025;-76
2023/12/07 00:34:55;;;;;;;7.28;4.80;;;4.20;79.10;;;;;;5015274;28;20076;-76
2023/12/07 00:37:21;;;;;;;5.90;5.10;;;4.20;79.10;;;;;;5022301;28;20113;-77
2023/12/07 00:39:46;;;;;;;6.30;4.72;;;4.10;79.00;;;;;;5015898;28;20041;-76
2023/12/07 00:42:12;;;;;;;7.70;5.60;;;4.10;79.10;;;;;;5016169;28;20559;-77
2023/12/07 00:44:41;;;;;;;5.75;5.13;;;4.10;79.00;;;;;;5030880;28;20072;-75
2023/12/07 00:47:07;;;;;;;6.63;4.82;;;4.10;79.10;;;;;;5013861;28;20366;-76
2023/12/07 00:49:33;;;;;;;6.93;5.15;;;4.10;79.10;;;;;;5015262;28;20087;-76
2023/12/07 00:51:59;;;;;;;6.85;5.15;;;4.00;79.10;;;;;;5023038;28;20063;-75
2023/12/07 00:54:24;;;;;;;6.63;5.13;;;4.10;79.10;;;;;;5031376;28;20038;-76
2023/12/07 00:56:51;;;;;;;6.78;5.28;;;4.00;79.10;;;;;;5056021;28;20054;-76
2023/12/07 00:59:16;;;;;;;5.85;4.75;;;4.00;79.00;;;;;;5031402;28;20061;-76
2023/12/07 01:01:42;;;;;;;6.57;4.78;;;4.00;79.00;;;;;;5023208;28;20493;-76
2023/12/07 01:04:08;;;;;;;6.13;5.10;;;4.00;79.10;;;;;;5015020;28;20075;-77
2023/12/07 01:06:34;;;;;;;6.90;5.00;;;3.90;79.00;;;;;;5029508;28;20025;-76
2023/12/07 01:08:59;;;;;;;5.90;4.57;;;3.90;79.00;;;;;;4998831;28;20834;-76
2023/12/07 01:11:25;;;;;;;6.30;4.60;;;3.90;79.00;;;;;;5018536;28;20101;-76
2023/12/07 01:13:51;;;;;;;6.00;4.82;;;3.90;79.00;;;;;;5008148;28;20022;-75
2023/12/07 01:16:17;;;;;;;6.35;4.60;;;3.90;79.00;;;;;;5024573;28;20025;-76
2023/12/07 01:18:44;;;;;;;7.03;5.10;;;3.80;79.00;;;;;;4997688;28;20029;-76
2023/12/07 01:21:10;;;;;;;7.35;4.75;;;3.90;79.10;;;;;;5056540;28;20030;-75
2023/12/07 01:23:35;;;;;;;5.78;4.65;;;3.80;79.00;;;;;;5029261;28;20038;-75
2023/12/07 01:26:02;;;;;;;6.45;4.82;;;3.90;79.10;;;;;;5024727;28;20053;-75
2023/12/07 01:28:28;;;;;;;6.15;4.82;;;3.80;79.00;;;;;;5004498;28;20034;-75
2023/12/07 01:30:54;;;;;;;6.30;5.07;;;3.80;79.00;;;;;;5031654;28;20051;-75
2023/12/07 01:33:21;;;;;;;5.70;4.40;;;3.80;79.10;;;;;;5028867;28;20113;-75
2023/12/07 01:35:47;;;;;;;6.68;5.22;;;3.80;79.00;;;;;;4998664;28;20033;-75
2023/12/07 01:38:13;;;;;;;7.13;5.13;;;3.80;79.00;;;;;;5007419;28;20041;-76
2023/12/07 01:40:38;;;;;;;6.68;4.93;;;3.70;79.00;;;;;;5004925;28;20060;-75
2023/12/07 01:43:04;;;;;;;8.07;5.40;;;3.70;79.00;;;;;;5014876;28;20037;-75
2023/12/07 01:45:30;;;;;;;7.78;5.55;;;3.70;79.00;;;;;;4996484;28;20546;-75
2023/12/07 01:47:58;;;;;;;6.00;4.65;;;3.70;79.00;;;;;;5012648;28;20036;-75
2023/12/07 01:50:24;;;;;;;6.43;5.55;;;3.70;79.00;;;;;;5009432;28;20052;-75
2023/12/07 01:52:54;;;;;;;6.07;4.95;;;3.70;79.00;;;;;;5026561;28;20100;-75
2023/12/07 01:55:22;;;;;;;6.93;5.20;;;3.60;79.00;;;;;;5025582;28;20032;-76
2023/12/07 01:57:49;;;;;;;6.65;5.05;;;3.60;79.00;;;;;;5021722;28;20061;-76
2023/12/07 02:00:16;;;;;;;7.43;5.57;;;3.60;79.00;;;;;;5026278;28;20044;-75
2023/12/07 02:02:43;;;;;;;6.15;5.00;;;3.60;79.00;;;;;;4998755;28;20033;-76
2023/12/07 02:05:09;;;;;;;7.32;5.07;;;3.60;79.00;;;;;;5027551;28;20097;-75
2023/12/07 02:07:35;;;;;;;7.45;5.15;;;3.60;79.00;;;;;;5008332;28;20467;-76
2023/12/07 02:10:00;;;;;;;8.20;5.53;;;3.50;79.00;;;;;;5038917;28;20064;-75
2023/12/07 02:12:29;;;;;;;7.88;5.20;;;3.60;79.00;;;;;;5014447;28;20474;-75
2023/12/07 02:14:56;;;;;;;7.78;5.78;;;3.50;79.00;;;;;;5017735;28;20033;-75
2023/12/07 02:17:26;;;;;;;6.50;5.10;;;3.60;79.00;;;;;;5029288;28;20372;-75
2023/12/07 02:20:06;;;;;;;6.85;5.25;;;3.50;79.00;;;;;;5025035;28;20056;-75
2023/12/07 02:22:38;;;;;;;8.13;5.60;;;3.50;79.00;;;;;;5030270;28;20120;-75
2023/12/07 02:25:07;;;;;;;7.65;5.43;;;3.50;79.00;;;;;;5023823;28;20018;-75
2023/12/07 02:27:43;;;;;;;6.03;4.88;;;3.50;78.90;;;;;;5005515;28;20096;-75
2023/12/07 02:30:10;;;;;;;6.70;4.90;;;3.50;79.00;;;;;;5018625;28;20038;-75
2023/12/07 02:32:37;;;;;;;6.55;5.18;;;3.50;78.90;;;;;;5034229;28;20030;-75
2023/12/07 02:35:04;;;;;;;7.13;5.32;;;3.50;78.90;;;;;;5022004;28;20033;-75
2023/12/07 02:37:37;;;;;;;7.07;5.00;;;3.50;78.90;;;;;;4997822;28;20031;-75
2023/12/07 02:40:09;;;;;;;6.60;5.15;;;3.50;79.00;;;;;;5016833;28;20589;-75
2023/12/07 02:42:37;;;;;;;6.45;5.00;;;3.50;78.90;;;;;;5024115;28;20049;-75
2023/12/07 02:45:04;;;;;;;6.85;5.30;;;3.50;78.90;;;;;;5013233;28;20086;-76
2023/12/07 02:47:30;;;;;;;6.75;4.70;;;3.50;78.90;;;;;;5026327;28;20516;-75
2023/12/07 02:49:55;;;;;;;7.07;5.07;;;3.50;78.90;;;;;;5036001;28;20030;-75
2023/12/07 02:52:21;;;;;;;7.05;5.20;;;3.50;78.90;;;;;;5011336;28;20030;-75
2023/12/07 02:54:48;;;;;;;7.38;5.57;;;3.50;78.90;;;;;;5025749;28;20042;-75
2023/12/07 02:57:14;;;;;;;7.15;5.28;;;3.50;78.90;;;;;;5029560;28;20604;-75
2023/12/07 02:59:40;;;;;;;7.22;4.82;;;3.50;78.90;;;;;;5026652;28;20116;-75
2023/12/07 03:02:06;;;;;;;6.82;4.75;;;3.50;78.90;;;;;;4992966;28;20474;-76
2023/12/07 03:04:32;;;;;;;6.57;5.03;;;3.50;78.90;;;;;;5003033;28;20022;-76
2023/12/07 03:06:58;;;;;;;6.50;4.82;;;3.50;78.90;;;;;;5007418;28;20385;-75
2023/12/07 03:09:24;;;;;;;6.75;5.07;;;3.50;78.90;;;;;;5009555;28;20112;-76
2023/12/07 03:11:50;;;;;;;7.20;5.18;;;3.50;78.90;;;;;;5023015;28;20109;-76
2023/12/07 03:14:16;;;;;;;7.03;5.20;;;3.50;78.90;;;;;;5014682;28;20056;-76
2023/12/07 03:16:42;;;;;;;6.63;5.10;;;3.50;78.90;;;;;;5013025;28;20033;-76
2023/12/07 03:19:08;;;;;;;8.07;5.95;;;3.50;78.90;;;;;;5015569;28;20036;-76
2023/12/07 03:21:33;;;;;;;6.13;4.60;;;3.50;78.90;;;;;;5019280;28;20398;-76
2023/12/07 03:23:59;;;;;;;6.13;4.90;;;3.50;78.90;;;;;;5024035;28;20470;-76
2023/12/07 03:26:25;;;;;;;6.38;5.07;;;3.50;78.90;;;;;;4996280;28;20485;-75
2023/12/07 03:28:51;;;;;;;6.78;5.28;;;3.50;78.90;;;;;;5011914;28;20065;-76
2023/12/07 03:31:17;;;;;;;6.75;5.25;;;3.50;78.90;;;;;;5028386;28;20117;-76
2023/12/07 03:33:42;;;;;;;6.72;5.15;;;3.50;78.90;;;;;;5007260;28;20021;-75
2023/12/07 03:36:11;;;;;;;7.15;5.43;;;3.50;78.90;;;;;;5009642;28;20025;-75
2023/12/07 03:38:37;;;;;;;6.78;5.18;;;3.50;78.90;;;;;;5051438;28;20691;-76
2023/12/07 03:41:03;;;;;;;6.60;5.20;;;3.50;78.90;;;;;;5028812;28;20101;-76
2023/12/07 03:43:29;;;;;;;6.80;4.95;;;3.50;78.90;;;;;;5032166;28;20120;-75
2023/12/07 03:45:55;;;;;;;7.90;5.68;;;3.50;78.90;;;;;;5016066;28;20121;-76
2023/12/07 03:48:21;;;;;;;6.88;5.10;;;3.50;78.90;;;;;;5008209;28;20033;-77
2023/12/07 03:50:47;;;;;;;7.63;5.22;;;3.50;78.90;;;;;;5004618;28;20034;-76
2023/12/07 03:53:12;;;;;;;6.30;4.70;;;3.50;78.90;;;;;;5018378;28;20038;-76
2023/12/07 03:55:38;;;;;;;7.00;5.15;;;3.50;78.90;;;;;;5012240;28;20033;-77
2023/12/07 03:58:04;;;;;;;7.13;5.10;;;3.50;78.90;;;;;;5019589;28;20692;-76
2023/12/07 04:00:32;;;;;;;7.68;5.50;;;3.50;78.90;;;;;;5026720;28;20204;-77
2023/12/07 04:02:58;;;;;;;6.40;4.80;;;3.50;78.90;;;;;;5011632;28;20520;-77
2023/12/07 04:05:24;;;;;;;7.50;5.07;;;3.50;78.90;;;;;;5021863;28;20127;-77
2023/12/07 04:07:50;;;;;;;6.20;5.05;;;3.50;78.90;;;;;;5016154;28;20061;-77
2023/12/07 04:10:15;;;;;;;6.40;4.82;;;3.50;78.90;;;;;;5029587;28;20971;-77
2023/12/07 04:12:41;;;;;;;6.82;5.13;;;3.50;78.90;;;;;;5007013;28;20025;-76
2023/12/07 04:15:08;;;;;;;7.35;5.68;;;3.50;78.90;;;;;;5023448;28;20582;-76
2023/12/07 04:17:34;;;;;;;6.07;4.60;;;3.50;78.90;;;;;;5021455;28;20029;-77
2023/12/07 04:19:59;;;;;;;8.15;5.25;;;3.50;78.90;;;;;;5030069;28;20040;-77
2023/12/07 04:22:25;;;;;;;7.22;5.35;;;3.50;78.90;;;;;;5028637;28;20366;-77
2023/12/07 04:24:51;;;;;;;7.10;5.22;;;3.50;78.90;;;;;;4994215;28;20065;-77
2023/12/07 04:27:19;;;;;;;6.57;5.22;;;3.50;79.00;;;;;;5033006;28;20180;-77
2023/12/07 04:29:45;;;;;;;6.68;4.95;;;3.50;78.90;;;;;;4999596;28;20025;-77
2023/12/07 04:32:11;;;;;;;7.68;4.93;;;3.50;79.60;;;;;;5025008;28;20370;-77
2023/12/07 04:34:36;;;;;;;6.20;4.85;;;3.50;79.00;;;;;;5013456;28;20189;-76
2023/12/07 04:37:02;;;;;;;6.47;5.30;;;3.50;79.00;;;;;;5015234;28;20026;-77
2023/12/07 04:39:28;;;;;;;7.40;5.40;;;3.50;79.00;;;;;;5029020;28;20037;-77
2023/12/07 04:41:54;;;;;;;6.65;4.97;;;3.40;78.90;;;;;;5024637;28;20525;-77
2023/12/07 04:44:20;;;;;;;6.30;4.95;;;3.40;78.90;;;;;;5016344;28;20057;-76
2023/12/07 04:46:45;;;;;;;6.45;4.90;;;3.40;79.00;;;;;;5000234;28;20474;-77
2023/12/07 04:49:11;;;;;;;7.38;5.43;;;3.40;79.00;;;;;;5029080;28;20418;-77
2023/12/07 04:51:37;;;;;;;6.18;4.68;;;3.40;79.00;;;;;;4999618;28;20486;-77
2023/12/07 04:54:03;;;;;;;5.60;4.60;;;3.40;79.00;;;;;;5004741;28;20072;-77
2023/12/07 04:56:28;;;;;;;6.85;4.82;;;3.40;79.00;;;;;;5031311;28;20052;-77
2023/12/07 04:58:54;;;;;;;6.43;5.15;;;3.40;79.00;;;;;;5020097;28;20048;-76
2023/12/07 05:01:20;;;;;;;6.20;4.80;;;3.40;79.00;;;;;;5009461;28;20409;-77
2023/12/07 05:03:46;;;;;;;6.57;4.82;;;3.40;78.90;;;;;;5011188;28;20033;-77
2023/12/07 05:06:11;;;;;;;6.35;4.97;;;3.40;79.00;;;;;;5008957;28;20402;-77
2023/12/07 05:08:39;;;;;;;6.40;4.75;;;3.50;79.00;;;;;;5028283;28;20033;-77
2023/12/07 05:11:06;;;;;;;6.97;4.72;;;3.50;79.00;;;;;;5026928;28;20026;-77
2023/12/07 05:13:33;;;;;;;6.20;4.28;;;3.40;79.00;;;;;;5006737;28;20386;-76
2023/12/07 05:15:59;;;;;;;6.13;4.82;;;3.50;79.00;;;;;;5009143;28;20127;-77
2023/12/07 05:18:25;;;;;;;5.97;4.95;;;3.40;79.00;;;;;;5003372;28;20029;-77
2023/12/07 05:20:51;;;;;;;6.55;5.00;;;3.40;79.00;;;;;;5013033;28;20826;-76
2023/12/07 05:23:19;;;;;;;6.63;4.93;;;3.40;79.00;;;;;;4998994;28;20036;-77
2023/12/07 05:25:45;;;;;;;6.35;4.75;;;3.40;79.00;;;;;;5029153;28;20157;-77
2023/12/07 05:28:11;;;;;;;6.97;5.35;;;3.40;79.00;;;;;;5023337;28;20476;-76
2023/12/07 05:30:37;;;;;;;6.00;5.05;;;3.40;78.90;;;;;;5004779;28;20034;-77
2023/12/07 05:33:03;;;;;;;6.45;5.13;;;3.40;79.00;;;;;;5012737;28;20033;-77
2023/12/07 05:35:29;;;;;;;6.55;5.10;;;3.40;78.90;;;;;;5027420;28;20072;-77
2023/12/07 05:37:55;;;;;;;6.60;5.03;;;3.50;79.00;;;;;;4999064;28;20037;-77
2023/12/07 05:40:21;;;;;;;6.22;5.13;;;3.50;79.00;;;;;;5026252;28;20017;-76
2023/12/07 05:42:50;;;;;;;7.40;5.32;;;3.50;79.00;;;;;;5009412;28;20042;-77
2023/12/07 05:45:15;;;;;;;7.03;5.13;;;3.50;79.00;;;;;;5020237;28;20049;-76
2023/12/07 05:47:41;;;;;;;6.82;5.20;;;3.50;79.00;;;;;;5032057;28;20061;-77
2023/12/07 05:50:08;;;;;;;8.05;5.68;;;3.50;79.00;;;;;;4998218;28;20045;-77
2023/12/07 05:52:34;;;;;;;7.65;5.57;;;3.50;79.00;;;;;;5015863;28;20116;-76
2023/12/07 05:54:59;;;;;;;7.18;5.40;;;3.50;79.00;;;;;;4993193;28;20104;-77
2023/12/07 05:57:25;;;;;;;6.85;5.45;;;3.50;79.00;;;;;;5004671;28;20489;-77
2023/12/07 05:59:51;;;;;;;7.80;6.10;;;3.50;78.90;;;;;;5012377;28;20041;-77
2023/12/07 06:02:17;;;;;;;7.88;6.03;;;3.50;78.90;;;;;;5026005;28;20045;-77
2023/12/07 06:04:43;;;;;;;7.60;5.65;;;3.50;79.00;;;;;;5019889;28;20032;-76
2023/12/07 06:07:08;;;;;;;7.88;5.88;;;3.50;79.00;;;;;;5010818;28;20116;-77
2023/12/07 06:09:34;;;;;;;6.70;5.30;;;3.50;79.00;;;;;;5014740;28;20029;-76
2023/12/07 06:12:00;;;;;;;6.95;5.47;;;3.50;79.00;;;;;;5006847;28;20377;-77
2023/12/07 06:14:26;;;;;;;7.13;5.47;;;3.60;79.00;;;;;;4998114;28;20838;-77
2023/12/07 06:16:51;;;;;;;7.03;5.25;;;3.60;79.00;;;;;;5026275;28;20034;-77
2023/12/07 06:19:18;;;;;;;7.95;5.78;;;3.60;79.00;;;;;;5027958;28;20065;-77
2023/12/07 06:21:44;;;;;;;8.10;5.95;;;3.50;79.00;;;;;;5009225;28;20068;-77
2023/12/07 06:24:10;;;;;;;7.05;5.22;;;3.60;79.00;;;;;;5009802;28;20038;-77
2023/12/07 06:26:36;;;;;;;6.82;5.50;;;3.60;79.00;;;;;;5010893;28;20083;-77
2023/12/07 06:29:02;;;;;;;6.18;5.10;;;3.60;79.00;;;;;;5027201;28;20552;-77
2023/12/07 06:31:27;;;;;;;7.68;5.65;;;3.60;79.00;;;;;;5033706;28;20034;-77
2023/12/07 06:33:53;;;;;;;7.28;5.57;;;3.60;79.00;;;;;;5006421;28;20395;-77
2023/12/07 06:36:21;;;;;;;7.30;5.72;;;3.60;79.00;;;;;;4997913;28;20477;-77
2023/12/07 06:38:50;;;;;;;7.25;5.68;;;3.60;79.10;;;;;;5028770;28;20030;-77
2023/12/07 06:41:16;;;;;;;8.27;5.72;;;3.60;79.00;;;;;;5014029;28;20108;-77
2023/12/07 06:43:43;;;;;;;6.47;5.57;;;3.70;79.10;;;;;;4997332;28;20124;-76
2023/12/07 06:46:13;;;;;;;7.03;5.72;;;3.60;79.10;;;;;;5027629;28;20022;-77
2023/12/07 06:48:40;;;;;;;7.32;5.72;;;3.60;79.10;;;;;;4995644;28;20033;-77
2023/12/07 06:51:06;;;;;;;7.28;6.07;;;3.70;79.10;;;;;;5029174;28;20469;-77
2023/12/07 06:53:32;;;;;;;6.72;5.60;;;3.70;79.10;;;;;;4996769;28;20041;-77
2023/12/07 06:55:58;;;;;;;7.35;5.78;;;3.60;79.10;;;;;;5019363;28;20041;-77
2023/12/07 06:58:24;;;;;;;7.22;6.00;;;3.70;79.10;;;;;;5026363;28;20405;-77
2023/12/07 07:00:50;;;;;;;7.40;6.00;;;3.70;79.10;;;;;;5025000;28;20511;-77
2023/12/07 07:03:16;;;;;;;7.13;5.40;;;3.60;79.10;;;;;;5022530;28;20021;-77
2023/12/07 07:05:42;;;;;;;6.90;6.03;;;3.70;79.20;;;;;;5011638;28;20121;-77
2023/12/07 07:08:08;;;;;;;6.93;5.60;;;3.70;79.10;;;;;;5010735;28;20167;-76
2023/12/07 07:10:34;;;;;;;7.10;6.00;;;3.70;79.10;;;;;;5003429;28;20391;-77
2023/12/07 07:13:04;;;;;;;6.32;5.03;;;3.70;79.20;;;;;;5007242;28;20025;-77
2023/12/07 07:15:33;;;;;;;7.18;5.85;;;3.70;79.20;;;;;;5012110;28;20029;-77
2023/12/07 07:17:59;;;;;;;6.85;5.80;;;3.70;79.20;;;;;;5024997;28;20117;-77
2023/12/07 07:20:25;;;;;;;6.75;5.60;;;3.70;79.20;;;;;;5021462;28;20034;-76
2023/12/07 07:22:51;;;;;;;6.95;5.32;;;3.70;79.20;;;;;;5011561;28;20094;-77
2023/12/07 07:25:18;;;;;;;7.70;5.90;;;3.70;79.20;;;;;;5018943;28;20037;-77
2023/12/07 07:27:46;;;;;;;6.38;5.45;;;3.70;79.20;;;;;;5007910;28;20145;-76
2023/12/07 07:30:12;;;;;;;6.97;5.45;;;3.70;79.20;;;;;;5009330;28;20029;-77
2023/12/07 07:32:38;;;;;;;6.65;5.60;;;3.70;79.20;;;;;;5029914;28;20489;-77
2023/12/07 07:35:04;;;;;;;6.78;5.90;;;3.70;79.20;;;;;;5023658;28;20107;-77
2023/12/07 07:37:30;;;;;;;7.93;6.25;;;3.70;79.20;;;;;;4997032;28;20164;-77
2023/12/07 07:39:56;;;;;;;7.13;5.95;;;3.70;79.20;;;;;;5025715;28;20065;-77
2023/12/07 07:42:21;;;;;;;7.32;5.63;;;3.70;79.20;;;;;;5028852;28;20022;-77
2023/12/07 07:44:47;;;;;;;7.53;6.05;;;3.70;79.20;;;;;;4996484;28;20052;-77
2023/12/07 07:47:13;;;;;;;7.45;6.25;;;3.80;79.20;;;;;;5023674;28;20149;-77
2023/12/07 07:49:39;;;;;;;7.28;5.93;;;3.80;79.20;;;;;;5009839;28;20037;-77
2023/12/07 07:52:05;;;;;;;7.97;6.10;;;3.70;79.20;;;;;;5025598;28;20088;-77
2023/12/07 07:54:31;;;;;;;7.95;6.28;;;3.80;79.20;;;;;;5009037;28;20028;-76
2023/12/07 07:56:57;;;;;;;7.00;5.85;;;3.80;79.20;;;;;;5020506;28;20486;-76
2023/12/07 07:59:22;;;;;;;6.70;5.70;;;3.80;79.20;;;;;;5004531;28;20087;-75
2023/12/07 08:01:50;;;;;;;7.30;5.82;;;3.80;79.20;;;;;;5008887;28;20033;-75
2023/12/07 08:04:16;;;;;;;7.25;5.85;;;3.80;79.30;;;;;;5030417;28;20033;-75
2023/12/07 08:06:41;;;;;;;7.88;6.32;;;3.80;79.20;;;;;;5008567;28;20508;-76
2023/12/07 08:09:10;;;;;;;8.32;6.95;;;3.80;79.20;;;;;;5016963;28;20088;-75
2023/12/07 08:11:36;;;;;;;7.57;6.07;;;3.80;79.30;;;;;;5025049;28;20029;-75
2023/12/07 08:14:02;;;;;;;8.63;6.53;;;3.80;79.20;;;;;;5012742;28;20034;-77
2023/12/07 08:16:27;;;;;;;7.35;5.88;;;3.80;79.20;;;;;;4996391;28;20466;-76
2023/12/07 08:18:53;;;;;;;6.88;5.95;;;3.80;79.20;;;;;;5010942;28;20192;-77
2023/12/07 08:21:23;;;;;;;7.50;6.38;;;3.80;79.20;;;;;;5014472;28;20039;-77
2023/12/07 08:23:51;;;;;;;7.93;6.60;;;3.80;79.30;;;;;;5013942;28;20037;-77
2023/12/07 08:26:17;;;;;;;7.30;5.93;;;3.80;79.30;;;;;;5003039;28;20037;-77
2023/12/07 08:28:43;;;;;;;7.65;6.03;;;3.80;79.30;;;;;;4999240;28;20029;-77
2023/12/07 08:31:10;;;;;;;7.55;6.22;;;3.90;79.30;;;;;;4996783;28;20052;-77
2023/12/07 08:33:38;;;;;;;7.88;6.57;;;3.90;79.30;;;;;;5006375;28;20117;-75
2023/12/07 08:36:04;;;;;;;6.88;5.50;;;3.90;79.30;;;;;;5004649;28;20041;-76
2023/12/07 08:38:31;;;;;;;6.90;5.70;;;3.80;79.20;;;;;;5021933;28;20038;-76
2023/12/07 08:40:57;;;;;;;8.13;6.05;;;3.90;79.30;;;;;;5009237;28;20057;-76
2023/12/07 08:43:24;;;;;;;7.68;5.93;;;3.80;79.90;;;;;;5020702;28;20075;-75
2023/12/07 08:45:53;;;;;;;7.63;6.22;;;3.80;79.20;;;;;;4994927;28;20064;-75
2023/12/07 08:48:22;;;;;;;7.40;5.90;;;3.90;79.30;;;;;;5017997;28;20029;-76
2023/12/07 08:50:48;;;;;;;8.02;6.15;;;3.90;79.30;;;;;;5008913;28;20128;-75
2023/12/07 08:53:14;;;;;;;8.35;6.47;;;3.90;79.30;;;;;;5009576;28;20450;-76
2023/12/07 08:55:40;;;;;;;7.75;6.13;;;3.90;79.30;;;;;;5027030;28;20060;-74
2023/12/07 08:58:06;;;;;;;8.23;6.38;;;3.90;79.30;;;;;;5027208;28;20569;-75
2023/12/07 09:00:32;;;;;;;8.55;6.65;;;3.90;79.30;;;;;;5026754;28;20044;-75
2023/12/07 09:02:58;;;;;;;7.88;6.18;;;3.90;79.30;;;;;;5010116;28;20029;-74
2023/12/07 09:05:25;;;;;;;7.72;6.43;;;3.90;79.30;;;;;;5011177;28;20057;-75
2023/12/07 09:07:52;;;;;;;8.45;6.57;;;3.90;79.30;;;;;;5013844;28;20120;-75
2023/12/07 09:10:19;;;;;;;8.50;6.57;;;3.90;79.30;;;;;;5002121;28;20120;-74
2023/12/07 09:12:44;;;;;;;8.27;6.07;;;3.90;79.30;;;;;;5001824;28;20382;-76
2023/12/07 09:15:11;;;;;;;8.45;6.55;;;3.90;79.30;;;;;;5002749;28;20030;-76
2023/12/07 09:17:41;;;;;;;8.48;6.57;;;3.90;79.30;;;;;;5030578;28;20024;-75
2023/12/07 09:20:14;;;;;;;7.78;6.55;;;3.90;79.30;;;;;;5024314;28;20033;-75
2023/12/07 09:22:44;;;;;;;7.60;6.32;;;3.90;79.30;;;;;;5037628;28;20041;-75
2023/12/07 09:25:10;;;;;;;8.88;6.38;;;3.90;79.30;;;;;;5038947;28;20467;-75
2023/12/07 09:27:37;;;;;;;8.05;6.43;;;3.90;79.30;;;;;;5009941;28;20037;-75
2023/12/07 09:30:10;;;;;;;8.50;6.60;;;4.00;79.30;;;;;;5024727;28;20068;-76
2023/12/07 09:32:38;;;;;;;8.15;6.00;;;3.90;79.30;;;;;;5000239;28;20172;-76
2023/12/07 09:35:18;;;;;;;7.78;6.05;;;3.90;79.30;;;;;;5030997;28;20032;-76
2023/12/07 09:37:45;;;;;;;8.00;6.18;;;4.00;79.30;;;;;;5030591;28;20522;-76
2023/12/07 09:40:24;;;;;;;7.80;5.63;;;3.90;79.20;;;;;;5009862;28;20037;-76
2023/12/07 09:42:50;;;;;;;8.60;6.13;;;4.00;79.30;;;;;;5025147;28;20055;-75
2023/12/07 09:45:18;;;;;;;8.38;6.22;;;3.90;79.30;;;;;;5015141;28;20030;-75
2023/12/07 09:47:52;;;;;;;7.05;5.53;;;4.00;79.30;;;;;;4999945;28;20045;-76
2023/12/07 09:50:25;;;;;;;7.45;5.90;;;4.00;79.40;;;;;;5018908;28;20042;-77
2023/12/07 09:52:52;;;;;;;6.85;4.97;;;4.00;79.30;;;;;;5013106;28;20482;-75
2023/12/07 09:55:19;;;;;;;7.93;5.50;;;4.00;79.30;;;;;;5004400;28;20368;-75
2023/12/07 09:57:46;;;;;;;7.80;5.85;;;4.00;79.30;;;;;;5036293;28;20054;-77
2023/12/07 10:00:14;;;;;;;8.23;5.68;;;4.00;79.30;;;;;;5006510;28;20119;-76
2023/12/07 10:02:42;;;;;;;7.50;5.55;;;4.00;79.30;;;;;;5009036;28;20026;-76
2023/12/07 10:05:19;;;;;;;6.90;4.85;;;4.00;79.30;;;;;;5014746;28;20120;-77
2023/12/07 10:07:48;;;;;;;6.47;4.75;;;4.00;79.30;;;;;;5030052;28;20029;-76
2023/12/07 10:10:14;;;;;;;7.82;5.28;;;4.00;79.90;;;;;;5018871;28;20037;-75
2023/12/07 10:12:54;;;;;;;6.90;5.25;;;4.00;80.00;;;;;;5022390;28;20117;-74
2023/12/07 10:15:21;;;;;;;6.97;5.40;;;4.00;79.40;;;;;;5027757;28;20059;-75
2023/12/07 10:17:50;;;;;;;7.18;5.55;;;4.00;79.40;;;;;;5008205;28;20120;-76
2023/12/07 10:20:27;;;;;;;7.63;5.55;;;4.00;79.30;;;;;;5022422;28;20032;-75
2023/12/07 10:23:03;;;;;;;7.80;5.38;;;4.00;79.40;;;;;;5008119;28;20128;-76
2023/12/07 10:25:31;;;;;;;6.88;5.13;;;4.00;79.40;;;;;;5015778;28;20033;-76
2023/12/07 10:27:56;;;;;;;7.07;5.22;;;4.00;79.30;;;;;;5025799;28;20551;-76
2023/12/07 10:30:25;;;;;;;6.88;4.97;;;4.00;79.30;;;;;;5031142;28;20033;-75
2023/12/07 10:32:52;;;;;;;6.57;4.80;;;4.10;79.40;;;;;;5024876;28;20029;-76
2023/12/07 10:35:19;;;;;;;6.03;4.68;;;4.10;79.40;;;;;;5026591;28;20040;-75
2023/12/07 10:37:45;;;;;;;7.00;5.10;;;4.10;79.40;;;;;;5022634;28;20050;-76
2023/12/07 10:40:11;;;;;;;7.28;5.47;;;4.10;79.40;;;;;;5013214;28;20478;-76
2023/12/07 10:42:39;;;;;;;6.78;4.97;;;4.10;79.30;;;;;;5012449;28;20060;-75
2023/12/07 10:45:06;;;;;;;6.47;5.03;;;4.10;79.30;;;;;;5030849;28;20030;-75
2023/12/07 10:47:37;;;;;;;7.57;5.45;;;4.10;79.40;;;;;;5027320;28;20083;-76
2023/12/07 10:50:10;;;;;;;7.15;5.10;;;4.10;79.40;;;;;;5013631;28;20029;-75
2023/12/07 10:52:39;;;;;;;7.05;5.20;;;4.10;79.40;;;;;;5053325;28;20445;-74
2023/12/07 10:55:13;;;;;;;7.53;5.32;;;4.10;79.30;;;;;;5015089;28;20125;-75
2023/12/07 10:57:40;;;;;;;6.90;5.43;;;4.20;79.40;;;;;;5036268;28;20073;-75
2023/12/07 11:00:08;;;;;;;7.47;5.03;;;4.10;79.30;;;;;;5013170;28;20029;-75
2023/12/07 11:02:37;;;;;;;7.53;5.13;;;4.20;79.30;;;;;;5025750;28;20049;-75
2023/12/07 11:05:06;;;;;;;7.07;5.38;;;4.20;79.40;;;;;;5020642;28;20030;-75
2023/12/07 11:07:55;;;;;;;7.15;5.00;;;4.20;79.40;;;;;;5059019;28;20088;-76
2023/12/07 11:10:32;;;;;;;8.15;5.68;;;4.20;79.50;;;;;;5037521;28;20121;-75
2023/12/07 11:13:20;;;;;;;7.57;5.50;;;4.20;79.40;;;;;;5020551;28;20051;-75
2023/12/07 11:15:46;;;;;;;7.25;4.63;;;4.20;79.40;;;;;;5017738;28;20088;-75
2023/12/07 11:18:13;;;;;;;8.23;5.10;;;4.20;79.30;;;;;;5011587;28;20033;-74
2023/12/07 11:20:41;;;;;;;8.20;5.45;;;4.20;79.40;;;;;;5011335;28;20049;-75
2023/12/07 11:23:08;;;;;;;8.85;6.10;;;4.20;79.40;;;;;;5014104;28;20026;-75
2023/12/07 11:25:36;;;;;;;8.05;5.40;;;4.20;79.40;;;;;;5013129;28;20318;-75
2023/12/07 11:28:06;;;;;;;8.25;5.75;;;4.30;79.40;;;;;;5010295;28;20085;-75
2023/12/07 11:30:34;;;;;;;9.15;6.35;;;4.30;79.40;;;;;;5024182;28;20040;-75
2023/12/07 11:33:03;;;;;;;8.23;5.20;;;4.30;79.40;;;;;;5040924;28;20040;-75
2023/12/07 11:35:28;;;;;;;8.73;5.60;;;4.30;79.40;;;;;;5016423;28;20117;-75
2023/12/07 11:38:23;;;;;;;8.85;5.85;;;4.30;79.40;;;;;;5011314;28;20112;-76
2023/12/07 11:40:49;;;;;;;8.60;5.65;;;4.30;79.50;;;;;;5000723;28;20053;-76
2023/12/07 11:43:40;;;;;;;9.18;5.68;;;4.30;79.30;;;;;;5008083;28;20162;-75
2023/12/07 11:46:07;;;;;;;8.55;5.65;;;4.30;79.40;;;;;;5017666;28;20030;-76
2023/12/07 11:48:33;;;;;;;8.50;5.85;;;4.40;79.40;;;;;;5024202;28;20021;-76
2023/12/07 11:51:04;;;;;;;8.65;5.85;;;4.40;79.40;;;;;;5012687;28;20375;-76
2023/12/07 11:53:31;;;;;;;8.65;5.90;;;4.40;79.40;;;;;;5019463;28;20116;-75
2023/12/07 11:56:05;;;;;;;8.75;5.78;;;4.40;79.40;;;;;;5025361;28;20037;-75
2023/12/07 11:58:33;;;;;;;8.90;6.13;;;4.40;79.50;;;;;;5010882;28;20471;-75
2023/12/07 12:01:00;;;;;;;9.35;6.07;;;4.40;79.40;;;;;;5008387;28;20041;-75
2023/12/07 12:03:27;;;;;;;10.05;6.68;;;4.50;79.50;;;;;;5001124;28;20038;-76
2023/12/07 12:05:54;;;;;;;8.65;5.82;;;4.50;79.40;;;;;;4996998;28;20030;-75
2023/12/07 12:08:21;;;;;;;8.32;5.78;;;4.50;79.40;;;;;;5022725;28;20029;-76
2023/12/07 12:10:49;;;;;;;9.90;7.03;;;4.50;79.40;;;;;;5033334;28;20029;-76
2023/12/07 12:13:15;;;;;;;10.43;7.13;;;4.50;79.40;;;;;;5009606;28;20403;-79
2023/12/07 12:15:41;;;;;;;11.13;6.65;;;4.50;79.30;;;;;;5005244;28;20033;-76
2023/12/07 12:18:08;;;;;;;9.93;6.47;;;4.50;79.30;;;;;;5029773;28;20513;-76
2023/12/07 12:20:35;;;;;;;9.52;6.47;;;4.60;79.40;;;;;;5013595;28;20025;-77
2023/12/07 12:23:01;;;;;;;10.82;6.80;;;4.60;79.40;;;;;;5032856;28;20030;-76
2023/12/07 12:25:31;;;;;;;9.32;6.55;;;4.60;79.40;;;;;;5013053;28;20484;-77
2023/12/07 12:28:01;;;;;;;9.63;6.60;;;4.60;79.40;;;;;;5024754;28;20026;-77
2023/12/07 12:30:28;;;;;;;10.73;7.03;;;4.70;79.40;;;;;;5030145;28;20056;-77
2023/12/07 12:32:53;;;;;;;8.48;6.25;;;4.70;79.40;;;;;;4997805;28;20026;-77
2023/12/07 12:35:19;;;;;;;10.00;6.70;;;4.70;79.40;;;;;;5008145;28;20465;-76
2023/12/07 12:37:46;;;;;;;9.70;6.63;;;4.70;79.40;;;;;;5024513;28;20491;-76
2023/12/07 12:40:15;;;;;;;10.40;6.35;;;4.70;79.40;;;;;;5025571;28;20026;-76
2023/12/07 12:42:44;;;;;;;10.43;6.70;;;4.70;79.40;;;;;;5029759;28;20030;-76
2023/12/07 12:45:13;;;;;;;10.63;7.18;;;4.70;79.40;;;;;;5024717;28;20040;-75
2023/12/07 12:47:40;;;;;;;9.27;7.00;;;4.80;79.40;;;;;;5026154;28;20400;-76
2023/12/07 12:50:06;;;;;;;10.18;6.90;;;4.80;79.40;;;;;;5008732;28;20116;-76
2023/12/07 12:52:33;;;;;;;10.57;7.43;;;4.80;79.50;;;;;;5024123;28;20034;-75
2023/12/07 12:54:59;;;;;;;10.50;6.68;;;4.80;79.40;;;;;;5023928;28;20025;-76
2023/12/07 12:57:25;;;;;;;10.13;6.72;;;4.90;79.50;;;;;;4978125;28;20474;-76